LFLC 181530Z AUTO 07008KT 360V110 9999 TS FEW017/// BKN041/// BKN049/// ///CB 22/16 Q1015 TEMPO 4000 TSRA BECMG 30010KT BKN050

ElémentsDécodage
LFLC Station météo située sur l'aérodrome de CLERMONT-FERRAND Auvergne
181530Z émis le 18 du mois à 15h30 UTC
AUTO Bulletin édité par un automate
07008KT vent du 070°, 08 noeuds
360V110 vent de direction variable entre 360° et 110°
9999 visibilité horizontale supérieure à 10 Km
TS ? d'orage
FEW017/// nuages rares (1/8 à 2/8) à 1700 pieds
 type de nuage non observable
BKN041/// nuages morcelés (5/8 à 7/8) à 4100 pieds
 type de nuage non observable
BKN049/// nuages morcelés (5/8 à 7/8) à 4900 pieds
 type de nuage non observable
///CB élement non décodé
22/16 température 22°C, point de rosée 16°C
 soit une humidité relative de 69%
Q1015 la pression au niveau de la mer (QNH) est de 1015 hPa
TEMPO fluctuation temporaire prévue
4000 visibilité horizontale de 4000 mètres
TSRA pluie d'orage
BECMG fluctuation du temps prévue
30010KT vent du 300°, 10 noeuds
BKN050 nuages morcelés (5/8 à 7/8) à 5000 pieds